Fowler, Kansas
Current Conditions -  °F | °C
As of 3:52 AM on Sunday 23 Nov 2014 (Local Time) from KDDC Reporting Station
Haze Haze  
Wind Chill: 41°   Ceiling: Unl
Heat Index: 47°   Visibility: 6mi
Dew Point: 44°   Wind: 15mph
Humidity: 90%   Direction: 200°SSW
Pressure: 29.4"   Gusts: NA
Location:  37.39°N, 100.2°W
Report Text: KDDC 230952Z AUTO 20013KT 6SM BR FEW006 08/07 A2940 RMK AO2 SLP945 T00830067
Loading
Personal Weather Stations






























Interactive Weather Map New forecast layout! Learn more

10-Day Weather Forecast

Advertisements
Track Severe Weather on mobile